KVPS/VPS METAR and TAF weather

Enter ICAO airport designator
Station Type Date Time Source
KVPS METAR 2020/07/06 21:21 UTC NOAA

KVPS 062121Z AUTO 00000KT 10SM FEW018 SCT025 SCT095 27/23 A2992 RMK AO2 LTG DSNT W SLP138 $


Station Type Date Time Source
KVPS Decoded METAR 2020/07/06 21:21 UTC NOAA

Valparaiso / Eglin Air Force Base, FL, United States (KVPS) 30-29N 086-31W 29M
Jul 06, 2020 - 05:21 PM EDT / 2020.07.06 2121 UTC
Wind: Calm:0
Visibility: 10 mile(s):0
Sky conditions: partly cloudy
Weather: Lightning observed
Temperature: 80 F (27 C)
Dew Point: 73 F (23 C)
Relative Humidity: 78%
Pressure (altimeter): 29.92 in. Hg (1013 hPa)
ob: KVPS 062121Z AUTO 00000KT 10SM FEW018 SCT025 SCT095 27/23 A2992 RMK AO2 LTG DSNT W SLP138
cycle: 21

Station Type Date Time Source
KVPS TAF 2020/07/06 17:09 UTC NOAA

TAF TAF KVPS 061700Z 0617/0723 21008KT 9999 VCSH SCT025 BKN040 BKN180 QNH2994INS
TEMPO 0619/0623 23013G18KT 9000 -TSRA BKN025CB BKN040
BECMG 0622/0623 24012KT 9000 -SHRA VCTS SCT025CB BKN040 OVC055 QNH2991INS
BECMG 0701/0702 25006KT 9999 NSW SCT010 SCT017 BKN025 QNH2994INS
BECMG 0706/0707 27006KT 9000 -SHRA SCT010 BKN017 QNH2996INS
BECMG 0713/0714 26006KT 9000 -SHRA SCT010 SCT026 QNH3000INS
BECMG 0716/0717 26010G15KT 9000 -SHRA VCTS SCT026CB QNH2998INS
TEMPO 0717/0722 26015G25KT 9000 -TSRA SCT026CB BKN040 OVC055
BECMG 0721/0722 26012KT 9000 -SHRA VCTS SCT018CB SCT025 BKN040 QNH2995INS
BECMG 0722/0723 26010KT 9999 NSW FEW010 QNH2996INS TX29/0619Z TN24/0711Z

Example: see airport list